Time;durP1;ratioP1;P1;durP2;ratioP2;P2;SDS_P1;SDS_P2;PMS_P1;PMS_P2;Temp;Humidity;BMP_temperature;BMP_pressure;BME280_temperature;BME280_humidity;BME280_pressure;Samples;Min_cycle;Max_cycle;Signal;HPM_P1;HPM_P2
2023/07/09 00:26:27;;;;;;;7.68;5.05;;;;;;;23.71;53.39;101900.94;7394805;19;19939;-77
2023/07/09 00:29:14;;;;;;;7.03;5.30;;;;;;;23.72;52.61;101891.63;7395845;19;19934;-76
2023/07/09 00:31:49;;;;;;;9.00;5.90;;;;;;;23.72;52.35;101899.03;7392794;19;19926;-78
2023/07/09 00:34:28;;;;;;;8.07;5.03;;;;;;;23.73;52.61;101897.97;7390070;19;20619;-78
2023/07/09 00:36:58;;;;;;;6.32;5.47;;;;;;;23.68;52.88;101895.91;7387991;19;19926;-81
2023/07/09 00:50:22;;;;;;;6.35;5.35;;;;;;;23.27;54.23;101891.28;7402784;19;20629;-70
2023/07/09 01:28:36;;;;;;;7.85;5.75;;;;;;;22.70;55.99;101886.44;7406184;19;19946;-79
2023/07/09 01:31:11;;;;;;;9.38;5.93;;;;;;;22.62;55.84;101882.91;7385849;19;19970;-79
2023/07/09 01:33:44;;;;;;;8.98;6.53;;;;;;;22.59;55.57;101883.38;7386916;19;19961;-78
2023/07/09 01:36:23;;;;;;;9.27;6.30;;;;;;;22.58;55.90;101891.84;7390662;19;20495;-78
2023/07/09 01:39:00;;;;;;;10.38;6.60;;;;;;;22.53;55.88;101887.06;7394545;19;19922;-78
2023/07/09 01:41:45;;;;;;;;;;;;;;;22.16;57.73;101882.66;7397619;19;19929;-79
2023/07/09 02:40:45;;;;;;;9.65;6.93;;;;;;;21.45;58.94;101863.09;7386693;19;20343;-78
2023/07/09 03:37:15;;;;;;;12.00;7.15;;;;;;;20.89;60.56;101888.59;7398917;19;19951;-80
2023/07/09 03:49:41;;;;;;;11.35;7.63;;;;;;;20.86;60.65;101882.72;7407841;19;19921;-79
2023/07/09 05:43:11;;;;;;;12.52;7.78;;;;;;;22.20;59.47;101899.50;7393441;19;19927;-78
2023/07/09 05:45:46;;;;;;;10.75;7.10;;;;;;;22.33;58.88;101900.19;7388891;19;19947;-79
2023/07/09 05:48:18;;;;;;;11.70;7.55;;;;;;;22.44;58.54;101904.91;7389346;19;19923;-79
2023/07/09 05:50:53;;;;;;;10.85;7.60;;;;;;;22.51;58.23;101905.69;7388842;19;19938;-77
2023/07/09 05:53:26;;;;;;;11.68;7.78;;;;;;;22.60;58.67;101906.22;7391837;19;19997;-78
2023/07/09 05:56:47;;;;;;;9.07;6.78;;;;;;;22.64;60.03;101904.66;7397057;19;20329;-81
2023/07/09 13:31:42;;;;;;;5.15;3.25;;;;;;;36.99;27.12;101822.56;7402129;19;19922;-79
2023/07/09 13:45:23;;;;;;;4.85;3.05;;;;;;;35.60;30.48;101818.94;7375120;19;20277;-80
2023/07/09 13:48:01;;;;;;;6.57;3.92;;;;;;;35.41;30.70;101814.38;7373948;19;19926;-80
2023/07/09 13:50:36;;;;;;;6.45;3.75;;;;;;;35.22;31.21;101810.13;7376325;19;19926;-80
2023/07/09 13:53:19;;;;;;;6.97;3.85;;;;;;;35.06;31.84;101804.06;7374324;19;19923;-77
2023/07/09 14:51:17;;;;;;;7.25;5.50;;;;;;;32.94;45.26;101731.09;7370213;19;19935;-77
2023/07/09 15:06:09;;;;;;;10.30;6.80;;;;;;;31.89;47.92;101684.16;7358503;19;19985;-78
2023/07/09 15:17:30;;;;;;;8.85;6.75;;;;;;;31.48;49.05;101698.63;7368143;19;19959;-78
2023/07/09 15:20:04;;;;;;;9.77;6.10;;;;;;;31.40;49.41;101704.00;7371745;19;20383;-78
2023/07/09 15:22:38;;;;;;;7.00;6.05;;;;;;;31.32;50.36;101699.09;7370081;19;20328;-78
2023/07/09 15:25:18;;;;;;;7.30;5.88;;;;;;;31.18;50.81;101675.84;7378152;19;19945;-78
2023/07/09 15:27:49;;;;;;;8.60;6.50;;;;;;;31.13;50.53;101673.97;7375139;19;20240;-78
2023/07/09 15:30:22;;;;;;;10.00;6.25;;;;;;;31.08;51.19;101683.19;7380873;19;19998;-77
2023/07/09 15:33:20;;;;;;;6.20;5.03;;;;;;;31.04;50.58;101692.44;7377585;19;20198;-77
2023/07/09 15:35:55;;;;;;;7.63;5.85;;;;;;;30.99;51.90;101692.44;7374759;19;19922;-78
2023/07/09 15:38:34;;;;;;;10.05;6.72;;;;;;;30.87;52.11;101689.22;7381214;19;19914;-77
2023/07/09 15:58:52;;;;;;;6.93;5.65;;;;;;;30.33;52.89;101692.97;7377225;19;20500;-78
2023/07/09 16:04:08;;;;;;;11.23;8.10;;;;;;;30.26;50.75;101736.97;7404732;19;20326;-79
2023/07/09 16:06:38;;;;;;;19.35;9.65;;;;;;;29.96;51.37;101843.56;7377353;19;19919;-78
2023/07/09 16:09:08;;;;;;;19.35;11.48;;;;;;;29.18;50.32;101853.34;7380604;19;19914;-77
2023/07/09 16:11:39;;;;;;;21.13;8.15;;;;;;;27.83;46.89;101800.78;7380339;19;19926;-78
2023/07/09 16:14:23;;;;;;;16.20;7.15;;;;;;;26.47;47.17;101850.25;7383144;19;20738;-77
2023/07/09 16:16:54;;;;;;;13.77;6.03;;;;;;;26.11;48.46;101918.00;7381701;19;19957;-76
2023/07/09 16:19:25;;;;;;;;;;;;;;;25.27;48.73;101891.53;7382820;19;19932;-78
2023/07/09 16:21:56;;;;;;;12.23;5.10;;;;;;;25.38;48.37;101906.31;7377643;19;19994;-77
2023/07/09 16:24:30;;;;;;;10.27;4.07;;;;;;;25.11;48.94;101890.41;7379946;19;19918;-77
2023/07/09 16:26:59;;;;;;;9.65;4.32;;;;;;;24.82;49.96;101877.72;7382316;19;19938;-77
2023/07/09 16:29:32;;;;;;;9.25;4.07;;;;;;;24.65;50.76;101874.06;7382300;19;19922;-78
2023/07/09 16:32:03;;;;;;;9.85;4.03;;;;;;;24.52;51.83;101877.13;7382750;19;19918;-78
2023/07/09 16:34:34;;;;;;;8.85;4.18;;;;;;;24.31;52.24;101851.94;7381254;19;19930;-77
2023/07/09 16:37:03;;;;;;;10.43;4.15;;;;;;;24.32;52.69;101830.72;7379237;19;19930;-77
2023/07/09 16:39:37;;;;;;;8.68;3.80;;;;;;;24.29;52.97;101840.31;7380341;19;20337;-77
2023/07/09 16:42:13;;;;;;;10.27;4.78;;;;;;;24.14;54.46;101809.69;7381374;19;20581;-77
2023/07/09 16:44:46;;;;;;;8.40;3.60;;;;;;;24.07;56.91;101792.47;7376310;19;19922;-77
2023/07/09 16:47:19;;;;;;;9.40;4.60;;;;;;;24.02;56.33;101781.34;7379598;19;19932;-77
2023/07/09 16:49:52;;;;;;;8.98;4.00;;;;;;;23.87;57.80;101781.03;7375360;19;19929;-77
2023/07/09 16:55:26;;;;;;;7.50;4.38;;;;;;;23.62;58.48;101805.22;7371388;19;19968;-76
2023/07/09 16:58:01;;;;;;;19.08;6.05;;;;;;;23.44;58.99;101856.53;7378656;19;19926;-77
2023/07/09 17:19:31;;;;;;;9.23;4.82;;;;;;;23.08;62.81;101812.72;7374999;19;19925;-76
2023/07/09 17:22:02;;;;;;;11.45;5.93;;;;;;;23.01;62.66;101894.44;7373766;19;19918;-75
2023/07/09 17:24:44;;;;;;;7.47;4.65;;;;;;;22.63;67.59;102104.34;7375679;19;20286;-79
2023/07/09 17:27:19;;;;;;;15.57;6.93;;;;;;;22.04;70.05;102101.31;7377770;19;19927;-84
2023/07/09 17:29:48;;;;;;;21.88;6.85;;;;;;;20.38;83.55;102041.91;7380953;19;20423;-83
2023/07/09 17:32:17;;;;;;;9.30;3.58;;;;;;;19.79;83.68;102028.25;7375503;19;20304;-83
2023/07/09 17:34:46;;;;;;;6.43;2.85;;;;;;;19.48;84.33;102087.09;7377124;19;19922;-81
2023/07/09 17:37:17;;;;;;;7.95;3.65;;;;;;;19.40;86.00;102089.97;7378692;19;19931;-82
2023/07/09 17:39:49;;;;;;;4.95;3.30;;;;;;;19.49;87.16;102090.66;7376631;19;19918;-82
2023/07/09 17:42:21;;;;;;;6.97;2.75;;;;;;;19.67;85.84;102101.84;7380217;19;19918;-81
2023/07/09 17:44:49;;;;;;;7.30;3.33;;;;;;;19.76;84.83;102086.09;7376653;19;20272;-81
2023/07/09 17:47:21;;;;;;;5.07;2.92;;;;;;;19.77;83.61;102079.56;7377722;19;19937;-80
2023/07/09 17:49:49;;;;;;;8.70;3.75;;;;;;;19.70;83.63;102070.50;7379060;19;19922;-79
2023/07/09 17:52:19;;;;;;;8.43;2.90;;;;;;;19.72;84.29;102093.84;7379186;19;19919;-79
2023/07/09 17:54:51;;;;;;;5.85;2.30;;;;;;;19.82;84.57;102137.22;7378189;19;20454;-81
2023/07/09 17:57:27;;;;;;;6.57;2.97;;;;;;;19.92;85.39;102132.19;7376828;19;20015;-80
2023/07/09 17:59:56;;;;;;;5.72;3.33;;;;;;;20.08;85.83;102123.56;7378099;19;19918;-79
2023/07/09 18:02:28;;;;;;;3.35;2.50;;;;;;;20.22;85.63;102133.50;7378026;19;19922;-79
2023/07/09 18:04:57;;;;;;;7.28;3.35;;;;;;;20.34;85.56;102141.94;7377320;19;19926;-80
2023/07/09 18:07:30;;;;;;;6.20;3.05;;;;;;;20.49;85.36;102139.84;7379280;19;20276;-80
2023/07/09 18:10:02;;;;;;;5.00;2.95;;;;;;;20.64;84.42;102125.91;7376969;19;19930;-81
2023/07/09 18:12:32;;;;;;;10.32;3.90;;;;;;;20.80;83.67;102095.31;7363019;19;19923;-81
2023/07/09 18:15:03;;;;;;;7.30;3.30;;;;;;;20.93;83.64;102080.75;7338393;19;20279;-81
2023/07/09 18:17:34;;;;;;;7.72;3.17;;;;;;;21.00;83.30;102076.94;7339742;19;19922;-80
2023/07/09 18:20:05;;;;;;;8.60;3.38;;;;;;;21.10;82.99;102057.28;7343269;19;19930;-79
2023/07/09 18:22:33;;;;;;;6.70;3.33;;;;;;;21.18;82.85;102051.59;7337738;19;20020;-79
2023/07/09 18:25:05;;;;;;;8.38;3.50;;;;;;;21.28;82.90;102050.06;7339135;19;19935;-79
2023/07/09 18:27:37;;;;;;;7.15;3.15;;;;;;;21.28;82.35;102062.94;7338511;19;19922;-79
2023/07/09 18:30:07;;;;;;;5.65;3.08;;;;;;;21.27;81.99;102056.59;7345158;19;19955;-80
2023/07/09 18:32:36;;;;;;;7.65;3.35;;;;;;;21.28;82.46;102060.19;7336987;19;20397;-79
2023/07/09 18:35:20;;;;;;;5.18;2.85;;;;;;;21.21;82.60;102040.19;7338848;19;19926;-79
2023/07/09 18:37:49;;;;;;;5.95;2.72;;;;;;;21.24;82.23;102039.75;7341184;19;19943;-79
2023/07/09 18:40:21;;;;;;;6.13;3.25;;;;;;;21.23;81.89;102044.38;7343659;19;20013;-79
2023/07/09 18:42:50;;;;;;;7.95;2.97;;;;;;;21.22;81.97;102033.66;7371156;19;19933;-79
2023/07/09 18:45:21;;;;;;;7.03;3.70;;;;;;;21.21;81.56;102042.94;7370245;19;20862;-78
2023/07/09 18:47:50;;;;;;;6.63;3.58;;;;;;;21.23;81.24;102044.38;7376758;19;19954;-78
2023/07/09 18:50:26;;;;;;;5.90;3.13;;;;;;;21.23;81.86;102043.53;7375839;19;19958;-79
2023/07/09 18:52:56;;;;;;;5.78;3.33;;;;;;;21.24;81.97;102029.63;7376196;19;20035;-78
2023/07/09 18:55:29;;;;;;;5.10;3.03;;;;;;;21.22;81.57;102025.44;7372457;19;19988;-78
2023/07/09 18:57:59;;;;;;;4.68;2.90;;;;;;;21.24;81.44;102026.03;7375031;19;19922;-78
2023/07/09 19:00:27;;;;;;;8.63;3.45;;;;;;;21.23;81.75;102019.72;7380338;19;20632;-79
2023/07/09 19:02:56;;;;;;;5.75;2.92;;;;;;;21.20;81.70;102017.44;7380814;19;19955;-80
2023/07/09 19:05:27;;;;;;;7.30;3.08;;;;;;;21.23;81.53;102025.19;7378876;19;19951;-78
2023/07/09 19:07:58;;;;;;;4.93;3.00;;;;;;;21.24;81.49;102020.56;7382477;19;19921;-79
2023/07/09 19:10:31;;;;;;;5.20;2.70;;;;;;;21.23;81.76;102018.88;7379280;19;19946;-78
2023/07/09 19:13:02;;;;;;;7.30;3.17;;;;;;;21.25;81.50;102014.03;7380811;19;19930;-80
2023/07/09 19:15:34;;;;;;;8.82;2.88;;;;;;;21.27;81.26;102007.25;7380564;19;20423;-80
2023/07/09 19:18:03;;;;;;;6.57;2.72;;;;;;;21.30;81.23;101994.19;7381379;19;19951;-79
2023/07/09 19:20:32;;;;;;;7.50;3.45;;;;;;;21.34;80.96;101974.34;7380954;19;19918;-80
2023/07/09 19:23:00;;;;;;;9.15;3.60;;;;;;;21.33;81.22;101967.16;7381923;19;19914;-81
2023/07/09 19:25:32;;;;;;;7.55;4.18;;;;;;;21.32;80.82;101962.75;7380326;19;19978;-82
2023/07/09 19:28:01;;;;;;;7.88;4.50;;;;;;;21.32;80.85;101956.41;7381885;19;19926;-82
2023/07/09 19:30:30;;;;;;;7.47;4.57;;;;;;;21.28;80.72;101961.50;7382903;19;19937;-81
2023/07/09 19:33:01;;;;;;;8.27;4.28;;;;;;;21.29;80.87;101954.97;7381667;19;19968;-79
2023/07/09 19:35:31;;;;;;;7.10;4.10;;;;;;;21.31;80.68;101952.00;7380968;19;19941;-80
2023/07/09 19:38:00;;;;;;;9.18;4.70;;;;;;;21.31;80.61;101938.31;7381690;19;19918;-79
2023/07/09 19:40:31;;;;;;;8.13;4.07;;;;;;;21.27;81.29;101922.28;7381779;19;19934;-81
2023/07/09 19:42:59;;;;;;;7.72;4.78;;;;;;;21.28;80.80;101914.91;7374939;19;19926;-78
2023/07/09 19:45:32;;;;;;;8.68;4.13;;;;;;;21.34;80.42;101911.28;7381089;19;20324;-81
2023/07/09 19:48:02;;;;;;;8.75;3.92;;;;;;;21.37;80.62;101913.56;7365095;19;20489;-80
2023/07/09 19:50:33;;;;;;;7.63;3.67;;;;;;;21.43;79.41;101912.69;7348205;19;20279;-80
2023/07/09 19:55:46;;;;;;;8.82;3.13;;;;;;;21.47;79.51;101908.44;7345175;19;19967;-71
2023/07/09 19:58:32;;;;;;;5.78;3.47;;;;;;;21.45;79.68;101909.72;7371983;19;20652;31
2023/07/09 20:01:01;;;;;;;7.65;3.58;;;;;;;21.47;78.93;101905.69;7364351;19;19923;-82
2023/07/09 20:03:31;;;;;;;9.50;3.42;;;;;;;21.42;79.47;101916.50;7355777;19;19919;-81
2023/07/09 20:06:02;;;;;;;7.00;3.50;;;;;;;21.41;79.85;101922.19;7381596;19;19922;-81
2023/07/09 20:08:32;;;;;;;6.25;2.97;;;;;;;21.39;79.13;101922.44;7389773;19;19919;-86
2023/07/09 20:36:41;;;;;;;7.60;4.03;;;;;;;20.78;77.57;101946.81;7434175;19;20787;-71
2023/07/09 20:39:14;;;;;;;6.38;3.40;;;;;;;20.73;78.25;101949.34;7408754;19;19990;-70
2023/07/09 20:41:43;;;;;;;8.77;3.80;;;;;;;20.69;78.86;101962.66;7425919;19;19982;-71
2023/07/09 20:44:14;;;;;;;8.63;3.03;;;;;;;20.68;79.35;101971.06;7428857;19;19924;-72
2023/07/09 20:46:44;;;;;;;10.80;4.20;;;;;;;20.67;80.11;101967.50;7437450;19;20344;-77
2023/07/09 20:49:31;;;;;;;8.55;3.72;;;;;;;20.66;81.44;101963.09;7397758;19;19992;-76
2023/07/09 20:52:03;;;;;;;11.05;3.53;;;;;;;20.73;80.78;101963.91;7434120;19;19924;-70
2023/07/09 20:54:31;;;;;;;7.45;3.72;;;;;;;20.77;80.46;101972.50;7402656;19;19935;-69
2023/07/09 20:57:04;;;;;;;9.10;4.00;;;;;;;20.82;80.58;101959.84;7414205;19;19950;-70
2023/07/09 20:59:33;;;;;;;10.35;4.38;;;;;;;20.82;80.65;101959.84;7416810;19;19932;-70
2023/07/09 21:02:01;;;;;;;7.38;3.67;;;;;;;20.82;80.64;101959.84;7403125;19;19961;-69
2023/07/09 21:04:30;;;;;;;9.27;3.85;;;;;;;20.83;80.75;101975.22;7412097;19;19950;-70
2023/07/09 21:07:01;;;;;;;11.80;4.00;;;;;;;20.83;80.78;101977.97;7416186;19;19926;-70
2023/07/09 21:09:33;;;;;;;9.82;4.75;;;;;;;20.86;81.44;101978.59;7413196;19;19978;-70
2023/07/09 21:12:01;;;;;;;8.55;3.65;;;;;;;20.86;81.38;101981.31;7411151;19;19952;-70
2023/07/09 21:14:30;;;;;;;9.05;3.83;;;;;;;20.90;80.83;101975.19;7405242;19;20269;-70
2023/07/09 21:16:59;;;;;;;11.75;4.43;;;;;;;20.93;81.00;101982.97;7410616;19;19923;-71
2023/07/09 21:19:33;;;;;;;9.02;4.10;;;;;;;20.96;80.80;101989.91;7415079;19;20276;-70
2023/07/09 21:22:06;;;;;;;7.85;3.72;;;;;;;20.94;81.67;102006.56;7414356;19;20361;-71
2023/07/09 21:24:38;;;;;;;10.68;4.10;;;;;;;20.94;81.37;102011.19;7409384;19;19919;-70
2023/07/09 21:27:07;;;;;;;9.52;3.35;;;;;;;20.93;81.45;102012.25;7415558;19;19922;-70
2023/07/09 21:29:36;;;;;;;14.30;4.72;;;;;;;20.91;81.85;102007.00;7410135;19;19925;-71
2023/07/09 21:32:08;;;;;;;15.13;4.55;;;;;;;20.93;81.61;102006.78;7412895;19;20360;-69
2023/07/09 21:34:38;;;;;;;11.07;4.72;;;;;;;20.92;81.56;102007.84;7388743;19;19994;-69
2023/07/09 21:37:18;;;;;;;7.18;4.25;;;;;;;20.88;81.85;101995.66;7412595;19;19929;-70
2023/07/09 21:39:48;;;;;;;9.52;4.30;;;;;;;20.93;80.68;101990.34;7416269;19;19925;-70
2023/07/09 21:42:17;;;;;;;9.68;4.15;;;;;;;20.94;81.07;101986.53;7416620;19;19925;-70
2023/07/09 21:44:46;;;;;;;12.00;4.80;;;;;;;20.88;80.58;101976.47;7414944;19;19926;-71
2023/07/09 21:47:17;;;;;;;8.45;4.25;;;;;;;20.86;81.28;101970.38;7397674;19;19926;-70
2023/07/09 21:49:46;;;;;;;11.55;4.85;;;;;;;20.83;80.81;101967.03;7386550;19;19918;-70
2023/07/09 21:52:23;;;;;;;6.70;3.83;;;;;;;20.76;80.63;101951.66;7388352;19;19935;-70
2023/07/09 21:54:53;;;;;;;11.02;4.80;;;;;;;20.74;81.04;101948.31;7385347;19;19923;-70
2023/07/09 21:57:22;;;;;;;8.57;3.88;;;;;;;20.68;81.55;101952.75;7387471;19;19928;-70
2023/07/09 21:59:51;;;;;;;8.68;4.90;;;;;;;20.65;81.28;101957.81;7385948;19;19923;-70
2023/07/09 22:02:21;;;;;;;10.43;4.75;;;;;;;20.64;81.14;101951.50;7387779;19;23252;-70
2023/07/09 22:04:50;;;;;;;8.65;4.30;;;;;;;20.62;81.25;101947.31;7385762;19;20002;-70
2023/07/09 22:07:23;;;;;;;6.63;4.47;;;;;;;20.65;81.20;101947.72;7388274;19;19922;-70
2023/07/09 22:09:54;;;;;;;11.50;5.50;;;;;;;20.68;80.73;101950.00;7385655;19;20469;-70
2023/07/09 22:12:24;;;;;;;13.48;4.93;;;;;;;20.67;80.89;101974.84;7386568;19;19938;-70
2023/07/09 22:14:56;;;;;;;12.75;5.10;;;;;;;20.59;81.01;101986.06;7384702;19;20403;-69
2023/07/09 22:17:28;;;;;;;11.73;4.68;;;;;;;20.53;81.49;101962.28;7387032;19;20333;-70
2023/07/09 22:19:57;;;;;;;9.95;4.80;;;;;;;20.44;81.29;101978.13;7384335;19;19914;-70
2023/07/09 22:22:30;;;;;;;10.30;4.65;;;;;;;20.41;81.91;101986.75;7388096;19;19973;-70
2023/07/09 22:25:01;;;;;;;7.45;4.95;;;;;;;20.38;82.03;101982.53;7387804;19;20355;-70
2023/07/09 22:27:30;;;;;;;9.93;5.57;;;;;;;20.35;81.48;101999.41;7388741;19;19926;-70
2023/07/09 22:29:59;;;;;;;7.20;4.03;;;;;;;20.30;81.72;101991.00;7388279;19;19957;-70
2023/07/09 22:32:30;;;;;;;8.63;4.78;;;;;;;20.31;82.24;101980.88;7390039;19;20005;-69
2023/07/09 22:35:01;;;;;;;11.15;5.47;;;;;;;20.33;81.83;101973.28;7388399;19;19926;-70
2023/07/09 22:37:33;;;;;;;12.32;4.78;;;;;;;20.33;81.95;101985.09;7391097;19;21285;-71
2023/07/09 22:40:15;;;;;;;10.00;4.82;;;;;;;20.27;82.02;101993.28;7387909;19;20354;-69
2023/07/09 22:42:45;;;;;;;11.50;5.15;;;;;;;20.31;81.52;101983.63;7387204;19;19926;-70
2023/07/09 22:45:13;;;;;;;7.18;4.90;;;;;;;20.30;81.71;101987.41;7388538;19;19922;-70
2023/07/09 22:47:43;;;;;;;11.48;5.00;;;;;;;20.31;82.37;101978.16;7390856;19;19922;-69
2023/07/09 22:50:17;;;;;;;11.38;4.82;;;;;;;20.34;82.58;101972.25;7387361;19;19931;-71
2023/07/09 22:52:48;;;;;;;9.80;4.38;;;;;;;20.36;82.55;101962.75;7388554;19;19955;-70
2023/07/09 22:55:39;;;;;;;13.45;4.82;;;;;;;20.24;83.23;101955.38;7388357;19;22450;-70
2023/07/09 22:58:10;;;;;;;11.80;4.70;;;;;;;20.33;82.60;101956.88;7385446;19;19927;-70
2023/07/09 23:00:41;;;;;;;11.23;4.97;;;;;;;20.32;82.58;101953.28;7386852;19;19914;-70
2023/07/09 23:03:16;;;;;;;12.35;6.10;;;;;;;20.26;82.78;101959.59;7389231;19;19925;-70
2023/07/09 23:05:46;;;;;;;11.68;5.07;;;;;;;20.25;82.36;101946.97;7385331;19;19923;-70
2023/07/09 23:08:23;;;;;;;8.35;4.63;;;;;;;20.23;83.37;101940.03;7389150;19;19934;-70
2023/07/09 23:10:52;;;;;;;;;;;;;;;20.02;84.83;101941.13;7386889;19;20347;-70
2023/07/09 23:13:21;;;;;;;11.20;4.75;;;;;;;20.22;83.13;101950.16;7385143;19;20078;-70
2023/07/09 23:15:50;;;;;;;10.35;5.35;;;;;;;20.24;82.88;101958.13;7383373;19;20422;-71
2023/07/09 23:18:20;;;;;;;12.05;5.18;;;;;;;20.26;82.39;101950.56;7387394;19;19973;-71
2023/07/09 23:20:49;;;;;;;12.93;5.45;;;;;;;20.21;82.38;101951.19;7385601;19;19939;-71
2023/07/09 23:23:23;;;;;;;13.00;5.63;;;;;;;20.20;82.91;101954.13;7386652;19;20280;-71
2023/07/09 23:25:56;;;;;;;7.60;5.15;;;;;;;20.17;82.46;101949.09;7385332;19;19948;-70
2023/07/09 23:28:25;;;;;;;10.63;4.97;;;;;;;20.16;82.57;101950.97;7385042;19;19914;-70
2023/07/09 23:30:54;;;;;;;11.43;5.30;;;;;;;20.15;82.81;101954.78;7385208;19;20314;-70
2023/07/09 23:33:28;;;;;;;13.65;5.18;;;;;;;20.09;83.11;101960.28;7385152;19;19987;-70
2023/07/09 23:35:58;;;;;;;12.02;4.93;;;;;;;20.05;82.92;101972.69;7384102;19;19930;-70
2023/07/09 23:38:32;;;;;;;10.32;5.18;;;;;;;20.01;83.04;101982.38;7385435;19;21942;-70
2023/07/09 23:41:04;;;;;;;11.32;4.85;;;;;;;20.01;83.06;101985.97;7383314;19;19955;-70
2023/07/09 23:43:38;;;;;;;9.45;4.82;;;;;;;20.01;83.08;101996.06;7385660;19;19930;-70
2023/07/09 23:46:06;;;;;;;10.80;4.90;;;;;;;19.97;83.42;101998.38;7384111;19;20363;-70
2023/07/09 23:48:35;;;;;;;11.57;5.82;;;;;;;19.96;83.32;101996.69;7389239;19;19981;-71
2023/07/09 23:51:06;;;;;;;10.73;4.63;;;;;;;19.92;83.38;102004.47;7385844;19;19951;-70
2023/07/09 23:53:37;;;;;;;13.75;6.05;;;;;;;19.89;83.80;102023.19;7386138;19;20400;-70
2023/07/09 23:56:08;;;;;;;13.38;6.63;;;;;;;19.86;83.37;102029.94;7385387;19;20003;-70
2023/07/09 23:58:41;;;;;;;16.80;6.82;;;;;;;19.82;84.12;102023.19;7385990;19;19926;-71
